createdAt,value
2017-08-27T00:02:13.344Z,22.07
2017-08-27T00:04:40.894Z,23.27
2017-08-27T00:07:08.420Z,21.73
2017-08-27T00:09:35.925Z,21.60
2017-08-27T00:12:03.471Z,25.10
2017-08-27T00:14:31.033Z,23.30
2017-08-27T00:16:58.566Z,20.97
2017-08-27T00:19:26.942Z,22.20
2017-08-27T00:21:54.535Z,22.50
2017-08-27T00:24:22.035Z,22.40
2017-08-27T00:26:49.547Z,24.40
2017-08-27T00:29:17.974Z,24.07
2017-08-27T00:31:45.450Z,25.60
2017-08-27T00:34:12.953Z,23.73
2017-08-27T00:36:40.438Z,24.13
2017-08-27T00:39:07.943Z,22.97
2017-08-27T00:41:35.430Z,21.30
2017-08-27T00:44:02.927Z,21.20
2017-08-27T00:46:31.431Z,22.20
2017-08-27T00:48:58.938Z,23.47
2017-08-27T00:51:26.426Z,21.83
2017-08-27T00:53:53.916Z,23.33
2017-08-27T00:56:21.423Z,23.93
2017-08-27T00:58:48.906Z,20.70
2017-08-27T01:01:16.410Z,20.10
2017-08-27T01:03:43.895Z,19.67
2017-08-27T01:06:11.411Z,20.50
2017-08-27T01:08:38.902Z,21.50
2017-08-27T01:11:06.389Z,21.47
2017-08-27T01:13:33.888Z,21.00
2017-08-27T01:16:01.379Z,23.00
2017-08-27T01:18:28.890Z,22.60
2017-08-27T01:20:56.384Z,21.87
2017-08-27T01:23:23.913Z,22.53
2017-08-27T01:25:52.346Z,22.60
2017-08-27T01:28:19.829Z,20.93
2017-08-27T01:30:47.328Z,21.20
2017-08-27T01:33:14.822Z,21.27
2017-08-27T01:35:42.327Z,23.37
2017-08-27T01:38:09.815Z,22.03
2017-08-27T01:40:37.323Z,24.47
2017-08-27T01:43:04.807Z,25.77
2017-08-27T01:45:32.294Z,25.03
2017-08-27T01:47:59.808Z,23.37
2017-08-27T01:50:27.299Z,22.40
2017-08-27T01:52:54.830Z,21.57
2017-08-27T01:55:22.319Z,22.60
2017-08-27T01:57:49.826Z,22.00
2017-08-27T02:00:18.263Z,24.53
2017-08-27T02:02:45.762Z,23.50
2017-08-27T02:05:13.246Z,26.13
2017-08-27T02:07:41.682Z,22.80
2017-08-27T02:10:09.216Z,22.97
2017-08-27T02:12:36.718Z,22.97
2017-08-27T02:15:04.223Z,21.50
2017-08-27T02:17:32.646Z,21.03
2017-08-27T02:20:00.151Z,20.70
2017-08-27T02:22:27.634Z,20.90
2017-08-27T02:24:55.135Z,22.70
2017-08-27T02:27:22.614Z,23.40
2017-08-27T02:29:50.108Z,24.43
2017-08-27T02:32:17.614Z,25.87
2017-08-27T02:34:45.094Z,24.73
2017-08-27T02:37:12.635Z,23.83
2017-08-27T02:39:40.118Z,25.33
2017-08-27T02:42:07.635Z,26.57
2017-08-27T02:44:35.134Z,25.53
2017-08-27T02:47:02.628Z,28.30
2017-08-27T02:49:30.138Z,25.90
2017-08-27T02:51:59.579Z,25.83
2017-08-27T02:54:27.078Z,24.57
2017-08-27T02:56:54.631Z,24.00
2017-08-27T02:59:22.110Z,22.27
2017-08-27T03:01:49.625Z,22.70
2017-08-27T03:04:17.107Z,23.43
2017-08-27T03:06:44.607Z,23.23
2017-08-27T03:09:12.098Z,23.90
2017-08-27T03:11:41.568Z,25.47
2017-08-27T03:14:09.055Z,24.67
2017-08-27T03:16:36.554Z,24.87
2017-08-27T03:19:04.045Z,23.10
2017-08-27T03:21:33.492Z,24.60
2017-08-27T03:24:00.981Z,23.30
2017-08-27T03:26:28.478Z,24.50
2017-08-27T03:28:55.961Z,25.10
2017-08-27T03:31:23.480Z,23.87
2017-08-27T03:33:51.006Z,24.33
2017-08-27T03:36:18.506Z,22.90
2017-08-27T03:38:45.999Z,23.33
2017-08-27T03:41:15.451Z,23.47
2017-08-27T03:43:42.943Z,25.07
2017-08-27T03:46:12.394Z,23.70
2017-08-27T03:48:39.874Z,25.70
2017-08-27T03:51:07.379Z,28.57
2017-08-27T03:53:34.860Z,29.50
2017-08-27T03:56:02.362Z,26.93
2017-08-27T03:58:29.855Z,26.20
2017-08-27T04:00:57.363Z,28.00
2017-08-27T04:03:24.855Z,29.50
2017-08-27T04:05:52.378Z,31.50
2017-08-27T04:08:19.863Z,32.57
2017-08-27T04:10:47.359Z,28.97
2017-08-27T04:13:14.862Z,31.17
2017-08-27T04:15:43.311Z,27.60
2017-08-27T04:18:11.758Z,28.90
2017-08-27T04:20:39.242Z,27.07
2017-08-27T04:23:06.787Z,25.43
2017-08-27T04:25:34.272Z,24.27
2017-08-27T04:28:01.771Z,23.03
2017-08-27T04:30:29.259Z,24.00
2017-08-27T04:32:56.774Z,22.60
2017-08-27T04:35:25.203Z,22.40
2017-08-27T04:37:52.724Z,25.00
2017-08-27T04:40:20.209Z,24.97
2017-08-27T04:42:47.730Z,24.03
2017-08-27T04:45:15.211Z,25.60
2017-08-27T04:47:42.742Z,27.33
2017-08-27T04:50:10.214Z,29.47
2017-08-27T04:52:37.732Z,28.80
2017-08-27T04:55:05.219Z,28.67
2017-08-27T04:57:32.715Z,28.57
2017-08-27T05:00:00.234Z,26.00
2017-08-27T05:02:27.718Z,29.30
2017-08-27T05:04:55.224Z,30.10
2017-08-27T05:07:22.727Z,34.53
2017-08-27T05:09:50.243Z,33.20
2017-08-27T05:12:17.746Z,32.07
2017-08-27T05:14:47.211Z,31.77
2017-08-27T05:17:14.706Z,34.97
2017-08-27T05:19:42.212Z,34.87
2017-08-27T05:22:10.647Z,30.97
2017-08-27T05:24:38.154Z,32.50
2017-08-27T05:27:05.643Z,28.90
2017-08-27T05:29:33.143Z,28.70
2017-08-27T05:32:00.642Z,27.33
2017-08-27T05:34:28.136Z,26.30
2017-08-27T05:36:55.628Z,28.07
2017-08-27T05:39:23.139Z,29.33
2017-08-27T05:41:50.631Z,31.50
2017-08-27T05:44:18.127Z,32.27
2017-08-27T05:46:46.549Z,31.90
2017-08-27T05:49:14.042Z,31.43
2017-08-27T05:51:41.530Z,31.87
2017-08-27T05:54:09.930Z,29.07
2017-08-27T05:56:37.415Z,32.20
2017-08-27T05:59:04.928Z,36.43
2017-08-27T06:01:32.445Z,30.87
2017-08-27T06:03:59.966Z,32.13
2017-08-27T06:06:27.455Z,32.03
2017-08-27T06:08:54.954Z,30.80
2017-08-27T06:11:23.396Z,31.83
2017-08-27T06:13:50.899Z,30.10
2017-08-27T06:16:18.379Z,33.70
2017-08-27T06:18:47.823Z,34.23
2017-08-27T06:21:15.310Z,33.30
2017-08-27T06:23:42.855Z,38.83
2017-08-27T06:26:11.304Z,40.60
2017-08-27T06:28:38.813Z,38.47
2017-08-27T06:31:06.294Z,44.37
2017-08-27T06:33:35.763Z,41.90
2017-08-27T06:36:03.251Z,41.67
2017-08-27T06:38:30.779Z,37.67
2017-08-27T06:40:58.258Z,42.80
2017-08-27T06:43:25.791Z,42.63
2017-08-27T06:45:53.273Z,42.87
2017-08-27T06:48:20.790Z,41.10
2017-08-27T06:50:48.267Z,40.87
2017-08-27T06:53:15.762Z,47.10
2017-08-27T06:55:43.251Z,44.20
2017-08-27T06:58:10.739Z,41.13
2017-08-27T07:00:38.238Z,39.57
2017-08-27T07:03:05.718Z,42.50
2017-08-27T07:05:33.220Z,37.13
2017-08-27T07:08:01.603Z,34.53
2017-08-27T07:10:29.124Z,34.83
2017-08-27T07:12:56.658Z,34.43
2017-08-27T07:15:24.175Z,36.30
2017-08-27T07:17:51.674Z,36.10
2017-08-27T07:20:19.199Z,37.57
2017-08-27T07:22:46.681Z,36.30
2017-08-27T07:25:14.187Z,35.50
2017-08-27T07:27:41.672Z,34.60
2017-08-27T07:30:09.183Z,37.73
2017-08-27T07:32:36.666Z,35.97
2017-08-27T07:35:04.161Z,37.43
2017-08-27T07:37:31.655Z,38.77
2017-08-27T07:39:59.146Z,38.77
2017-08-27T07:42:26.655Z,38.77
2017-08-27T07:44:54.143Z,41.67
2017-08-27T07:47:21.650Z,39.33
2017-08-27T07:49:49.137Z,39.27
2017-08-27T07:52:18.607Z,39.60
2017-08-27T07:54:47.076Z,39.27
2017-08-27T07:57:14.616Z,40.67
2017-08-27T07:59:42.106Z,36.90
2017-08-27T08:02:09.647Z,38.63
2017-08-27T08:04:37.147Z,40.17
2017-08-27T08:07:04.650Z,36.07
2017-08-27T08:09:32.135Z,34.07
2017-08-27T08:11:59.647Z,35.53
2017-08-27T08:14:27.132Z,34.43
2017-08-27T08:16:54.653Z,35.50
2017-08-27T08:19:22.139Z,34.13
2017-08-27T08:21:49.671Z,35.23
2017-08-27T08:24:17.159Z,35.40
2017-08-27T08:26:44.679Z,35.00
2017-08-27T08:29:12.185Z,36.10
2017-08-27T08:31:39.690Z,35.23
2017-08-27T08:34:07.189Z,36.97
2017-08-27T08:36:34.707Z,33.73
2017-08-27T08:39:02.228Z,36.00
2017-08-27T08:41:31.719Z,34.97
2017-08-27T08:43:59.218Z,33.73
2017-08-27T08:46:26.724Z,35.70
2017-08-27T08:48:54.223Z,38.67
2017-08-27T08:51:21.725Z,35.70
2017-08-27T08:53:49.223Z,35.07
2017-08-27T08:56:16.745Z,33.63
2017-08-27T08:58:44.239Z,35.23
2017-08-27T09:01:13.724Z,31.13
2017-08-27T09:03:41.234Z,32.13
2017-08-27T09:06:08.722Z,33.20
2017-08-27T09:08:36.235Z,33.27
2017-08-27T09:11:03.710Z,32.60
2017-08-27T09:13:31.228Z,36.33
2017-08-27T09:15:59.667Z,34.07
2017-08-27T09:18:27.186Z,32.70
2017-08-27T09:20:54.691Z,36.93
2017-08-27T09:23:24.205Z,32.37
2017-08-27T09:25:51.692Z,32.67
2017-08-27T09:28:19.214Z,32.63
2017-08-27T09:30:46.691Z,35.30
2017-08-27T09:33:14.207Z,32.67
2017-08-27T09:35:41.698Z,33.87
2017-08-27T09:38:09.191Z,32.47
2017-08-27T09:40:36.744Z,34.60
2017-08-27T09:43:04.246Z,33.70
2017-08-27T09:45:31.753Z,29.90
2017-08-27T09:47:59.267Z,34.30
2017-08-27T09:50:26.790Z,29.93
2017-08-27T09:52:55.239Z,28.97
2017-08-27T09:55:22.759Z,27.87
2017-08-27T09:57:50.268Z,27.20
2017-08-27T10:00:18.690Z,26.43
2017-08-27T10:02:46.199Z,27.10
2017-08-27T10:05:13.688Z,23.43
2017-08-27T10:07:41.201Z,27.47
2017-08-27T10:10:08.719Z,27.17
2017-08-27T10:12:36.203Z,26.60
2017-08-27T10:15:03.712Z,25.60
2017-08-27T10:17:32.104Z,22.80
2017-08-27T10:19:59.624Z,22.97
2017-08-27T10:22:27.114Z,21.60
2017-08-27T10:24:54.625Z,20.13
2017-08-27T10:27:24.084Z,20.90
2017-08-27T10:29:51.596Z,22.00
2017-08-27T10:32:19.122Z,21.23
2017-08-27T10:34:46.621Z,19.23
2017-08-27T10:37:15.043Z,20.00
2017-08-27T10:39:44.354Z,20.47
2017-08-27T10:42:11.898Z,18.67
2017-08-27T10:44:39.403Z,22.20
2017-08-27T10:47:06.931Z,18.73
2017-08-27T10:49:34.424Z,22.40
2017-08-27T10:52:01.966Z,21.83
2017-08-27T10:54:29.486Z,20.70
2017-08-27T10:56:56.971Z,21.50
2017-08-27T10:59:24.466Z,18.70
2017-08-27T11:01:51.958Z,20.43
2017-08-27T11:04:19.463Z,17.53
2017-08-27T11:06:47.907Z,20.07
2017-08-27T11:09:15.423Z,19.43
2017-08-27T11:11:42.919Z,19.57
2017-08-27T11:14:12.359Z,20.27
2017-08-27T11:16:39.842Z,19.03
2017-08-27T11:19:07.371Z,19.47
2017-08-27T11:21:34.858Z,21.73
2017-08-27T11:24:02.367Z,20.40
2017-08-27T11:26:29.891Z,20.10
2017-08-27T11:28:59.341Z,19.23
2017-08-27T11:31:26.834Z,20.13
2017-08-27T11:33:54.367Z,19.97
2017-08-27T11:36:21.858Z,21.00
2017-08-27T11:38:49.367Z,21.47
2017-08-27T11:41:16.890Z,18.47
2017-08-27T11:43:44.397Z,18.13
2017-08-27T11:46:11.920Z,19.87
2017-08-27T11:48:39.441Z,21.20
2017-08-27T11:51:06.951Z,21.17
2017-08-27T11:53:34.466Z,20.43
2017-08-27T11:56:01.951Z,20.97
2017-08-27T11:58:29.453Z,17.90
2017-08-27T12:00:56.935Z,19.77
2017-08-27T12:03:26.383Z,21.40
2017-08-27T12:05:53.864Z,21.30
2017-08-27T12:08:21.372Z,21.17
2017-08-27T12:10:48.860Z,22.43
2017-08-27T12:13:16.374Z,19.40
2017-08-27T12:15:43.858Z,23.20
2017-08-27T12:18:12.363Z,22.57
2017-08-27T12:20:39.854Z,20.83
2017-08-27T12:23:07.343Z,20.47
2017-08-27T12:25:34.842Z,22.37
2017-08-27T12:28:02.331Z,21.50
2017-08-27T12:30:29.849Z,24.33
2017-08-27T12:32:57.338Z,21.20
2017-08-27T12:38:01.927Z,20.87
2017-08-27T12:40:29.434Z,20.30
2017-08-27T12:42:56.927Z,18.63
2017-08-27T12:45:24.447Z,20.00
2017-08-27T12:47:51.949Z,19.80
2017-08-27T12:50:19.486Z,19.63
2017-08-27T12:52:46.983Z,18.60
2017-08-27T12:55:14.592Z,18.80
2017-08-27T12:57:42.066Z,21.00
2017-08-27T13:00:09.912Z,22.63
2017-08-27T13:02:37.406Z,19.50
2017-08-27T13:05:04.921Z,24.53
2017-08-27T13:07:32.410Z,19.90
2017-08-27T13:10:00.814Z,20.13
2017-08-27T13:12:28.298Z,21.40
2017-08-27T13:14:55.822Z,18.30
2017-08-27T13:17:23.311Z,21.83
2017-08-27T13:19:51.795Z,18.33
2017-08-27T13:22:20.190Z,17.77
2017-08-27T13:24:47.723Z,18.93
2017-08-27T13:27:15.207Z,17.93
2017-08-27T13:29:42.743Z,18.80
2017-08-27T13:32:10.231Z,18.90
2017-08-27T13:34:37.740Z,20.03
2017-08-27T13:37:06.171Z,18.80
2017-08-27T13:39:33.687Z,19.20
2017-08-27T13:42:01.173Z,18.53
2017-08-27T13:44:28.665Z,22.90
2017-08-27T13:46:56.175Z,18.03
2017-08-27T13:49:23.665Z,20.17
2017-08-27T13:51:51.175Z,18.37
2017-08-27T13:54:18.655Z,18.30
2017-08-27T13:56:46.163Z,19.67
2017-08-27T13:59:13.662Z,16.53
2017-08-27T14:01:41.189Z,17.20
2017-08-27T14:04:08.676Z,18.80
2017-08-27T14:06:36.182Z,17.87
2017-08-27T14:09:03.697Z,17.57
2017-08-27T14:11:31.219Z,20.63
2017-08-27T14:13:58.703Z,18.47
2017-08-27T14:16:28.119Z,16.60
2017-08-27T14:18:56.504Z,18.10
2017-08-27T14:21:24.011Z,18.57
2017-08-27T14:23:51.510Z,16.80
2017-08-27T14:26:18.999Z,17.17
2017-08-27T14:28:46.530Z,16.10
2017-08-27T14:31:14.976Z,16.50
2017-08-27T14:33:42.506Z,20.87
2017-08-27T14:36:10.019Z,15.33
2017-08-27T14:38:37.575Z,13.43
2017-08-27T14:41:05.073Z,13.80
2017-08-27T14:43:32.613Z,17.40
2017-08-27T14:46:00.111Z,15.40
2017-08-27T14:48:27.623Z,16.00
2017-08-27T14:50:55.147Z,12.43
2017-08-27T14:53:25.797Z,12.63
2017-08-27T14:55:54.271Z,12.90
2017-08-27T14:58:22.677Z,13.00
2017-08-27T15:00:50.198Z,14.30
2017-08-27T15:03:17.727Z,13.13
2017-08-27T15:05:45.218Z,14.13
2017-08-27T15:08:12.731Z,13.27
2017-08-27T15:10:42.198Z,14.60
2017-08-27T15:13:09.778Z,11.80
2017-08-27T15:15:37.279Z,12.70
2017-08-27T15:18:05.436Z,11.77
2017-08-27T15:20:32.922Z,13.00
2017-08-27T15:23:00.433Z,12.53
2017-08-27T15:25:27.922Z,12.83
2017-08-27T15:27:55.486Z,13.00
2017-08-27T15:30:23.020Z,13.97
2017-08-27T15:32:50.664Z,14.77
2017-08-27T15:35:18.190Z,13.33
2017-08-27T15:37:46.638Z,15.00
2017-08-27T15:40:15.078Z,14.20
2017-08-27T15:42:42.575Z,16.00
2017-08-27T15:45:12.071Z,13.90
2017-08-27T15:47:39.555Z,15.57
2017-08-27T15:50:07.053Z,14.77
2017-08-27T15:52:34.571Z,15.57
2017-08-27T15:55:04.053Z,16.50
2017-08-27T15:57:31.551Z,16.47
2017-08-27T15:59:59.127Z,16.90
2017-08-27T16:02:26.674Z,15.43
2017-08-27T16:04:55.127Z,17.30
2017-08-27T16:07:24.609Z,14.40
2017-08-27T16:09:52.127Z,16.10
2017-08-27T16:12:20.563Z,14.10
2017-08-27T16:14:48.078Z,15.03
2017-08-27T16:17:15.595Z,13.30
2017-08-27T16:19:43.103Z,13.33
2017-08-27T16:22:10.619Z,14.20
2017-08-27T16:24:38.123Z,14.90
2017-08-27T16:27:05.634Z,13.87
2017-08-27T16:29:33.165Z,15.37
2017-08-27T16:32:00.656Z,14.83
2017-08-27T16:34:28.184Z,14.10
2017-08-27T16:36:55.689Z,15.47
2017-08-27T16:39:23.199Z,15.60
2017-08-27T16:41:50.691Z,14.43
2017-08-27T16:44:18.211Z,15.30
2017-08-27T16:46:57.832Z,15.00
2017-08-27T16:49:25.363Z,13.63
2017-08-27T16:51:52.941Z,13.57
2017-08-27T16:54:20.620Z,15.50
2017-08-27T16:56:48.190Z,15.10
2017-08-27T16:59:15.763Z,13.93
2017-08-27T17:01:43.411Z,16.20
2017-08-27T17:04:10.990Z,15.43
2017-08-27T17:06:38.620Z,15.03
2017-08-27T17:09:06.257Z,15.83
2017-08-27T17:11:33.840Z,15.50
2017-08-27T17:14:01.515Z,15.70
2017-08-27T17:16:30.055Z,14.27
2017-08-27T17:18:58.649Z,15.13
2017-08-27T17:21:26.277Z,15.33
2017-08-27T17:23:53.870Z,16.00
2017-08-27T17:26:21.376Z,15.27
2017-08-27T17:28:48.900Z,15.07
2017-08-27T17:31:16.382Z,13.47
2017-08-27T17:33:43.883Z,14.30
2017-08-27T17:36:11.374Z,14.43
2017-08-27T17:38:38.906Z,14.60
2017-08-27T17:41:07.299Z,13.70
2017-08-27T17:43:34.827Z,14.40
2017-08-27T17:46:02.324Z,13.90
2017-08-27T17:48:29.847Z,14.50
2017-08-27T17:50:57.331Z,14.33
2017-08-27T17:53:24.856Z,14.23
2017-08-27T17:55:53.270Z,14.03
2017-08-27T17:58:20.794Z,14.90
2017-08-27T18:00:48.322Z,13.13
2017-08-27T18:03:15.826Z,14.70
2017-08-27T18:05:44.334Z,14.70
2017-08-27T18:08:11.858Z,14.40
2017-08-27T18:10:39.404Z,13.70
2017-08-27T18:13:06.899Z,14.70
2017-08-27T18:15:34.419Z,14.43
2017-08-27T18:18:01.927Z,13.90
2017-08-27T18:20:29.459Z,14.20
2017-08-27T18:22:56.942Z,15.80
2017-08-27T18:25:24.451Z,15.27
2017-08-27T18:27:51.953Z,15.30
2017-08-27T18:30:20.272Z,15.77
2017-08-27T18:32:47.795Z,15.10
2017-08-27T18:35:15.375Z,15.90
2017-08-27T18:37:42.927Z,15.40
2017-08-27T18:40:10.510Z,17.90
2017-08-27T18:42:38.070Z,22.37
2017-08-27T18:45:05.655Z,22.50
2017-08-27T18:47:33.242Z,21.07
2017-08-27T18:50:00.771Z,18.30
2017-08-27T18:52:28.371Z,21.70
2017-08-27T18:54:55.984Z,19.50
2017-08-27T18:57:24.407Z,18.40
2017-08-27T18:59:52.050Z,18.80
2017-08-27T19:02:19.624Z,17.80
2017-08-27T19:04:47.174Z,18.47
2017-08-27T19:07:14.712Z,16.80
2017-08-27T19:09:42.303Z,17.27
2017-08-27T19:12:09.871Z,18.70
2017-08-27T19:14:37.584Z,18.50
2017-08-27T19:17:06.291Z,20.00
2017-08-27T19:19:33.894Z,21.03
2017-08-27T19:22:01.428Z,18.20
2017-08-27T19:24:29.124Z,18.30
2017-08-27T19:26:56.687Z,20.23
2017-08-27T19:29:24.332Z,19.60
2017-08-27T19:31:51.946Z,21.53
2017-08-27T19:34:19.562Z,21.00
2017-08-27T19:36:48.446Z,22.47
2017-08-27T19:39:16.093Z,21.77
2017-08-27T19:41:44.057Z,23.27
2017-08-27T19:44:11.675Z,22.13
2017-08-27T19:46:39.257Z,21.60
2017-08-27T19:49:06.838Z,20.90
2017-08-27T19:51:34.532Z,22.83
2017-08-27T19:54:02.201Z,23.30
2017-08-27T19:56:29.863Z,22.10
2017-08-27T19:58:57.462Z,22.73
2017-08-27T20:01:25.068Z,22.60
2017-08-27T20:03:52.659Z,22.10
2017-08-27T20:06:20.237Z,21.80
2017-08-27T20:08:48.796Z,19.40
2017-08-27T20:11:16.344Z,21.10
2017-08-27T20:13:43.860Z,22.03
2017-08-27T20:16:11.617Z,21.57
2017-08-27T20:18:39.202Z,21.30
2017-08-27T20:21:06.758Z,21.20
2017-08-27T20:23:34.314Z,21.30
2017-08-27T20:26:01.882Z,21.10
2017-08-27T20:28:29.470Z,21.57
2017-08-27T20:30:57.017Z,21.23
2017-08-27T20:33:25.389Z,22.53
2017-08-27T20:38:26.905Z,21.10
2017-08-27T20:40:54.511Z,23.13
2017-08-27T20:43:22.119Z,22.90
2017-08-27T20:45:49.718Z,21.03
2017-08-27T20:48:17.326Z,22.00
2017-08-27T20:50:44.886Z,21.93
2017-08-27T20:53:12.460Z,23.57
2017-08-27T20:55:42.099Z,23.43
2017-08-27T20:58:09.656Z,23.00
2017-08-27T21:00:37.260Z,24.17
2017-08-27T21:03:11.015Z,24.60
2017-08-27T21:05:38.619Z,23.27
2017-08-27T21:08:06.219Z,23.00
2017-08-27T21:10:35.767Z,23.10
2017-08-27T21:13:03.306Z,21.90
2017-08-27T21:15:30.835Z,23.77
2017-08-27T21:17:58.400Z,20.70
2017-08-27T21:20:25.931Z,21.83
2017-08-27T21:22:54.459Z,22.60
2017-08-27T21:25:22.003Z,21.77
2017-08-27T21:27:49.518Z,18.50
2017-08-27T21:30:17.087Z,16.83
2017-08-27T21:32:46.059Z,17.43
2017-08-27T21:35:13.665Z,14.63
2017-08-27T21:37:41.204Z,14.33
2017-08-27T21:40:08.840Z,13.33
2017-08-27T21:42:36.456Z,15.10
2017-08-27T21:45:04.062Z,13.33
2017-08-27T21:47:31.675Z,13.30
2017-08-27T21:49:59.268Z,13.30
2017-08-27T21:52:26.920Z,12.10
2017-08-27T21:54:54.436Z,12.63
2017-08-27T21:57:23.954Z,12.63
2017-08-27T21:59:51.646Z,12.23
2017-08-27T22:02:19.253Z,10.83
2017-08-27T22:04:46.936Z,11.47
2017-08-27T22:07:14.494Z,10.80
2017-08-27T22:09:43.064Z,9.47
2017-08-27T22:12:10.666Z,9.53
2017-08-27T22:14:38.290Z,8.60
2017-08-27T22:17:05.872Z,8.47
2017-08-27T22:19:33.379Z,7.60
2017-08-27T22:22:00.926Z,8.30
2017-08-27T22:24:28.500Z,8.10
2017-08-27T22:26:58.030Z,8.00
2017-08-27T22:29:25.566Z,7.57
2017-08-27T22:31:53.063Z,7.83
2017-08-27T22:34:20.617Z,7.30
2017-08-27T22:36:48.165Z,7.63
2017-08-27T22:39:15.703Z,8.07
2017-08-27T22:41:43.270Z,8.00
2017-08-27T22:44:10.822Z,7.57
2017-08-27T22:46:38.332Z,8.03
2017-08-27T22:49:05.868Z,8.00
2017-08-27T22:51:33.435Z,7.30
2017-08-27T22:54:01.030Z,6.63
2017-08-27T22:56:28.567Z,7.90
2017-08-27T22:58:56.123Z,6.83
2017-08-27T23:01:23.670Z,7.27
2017-08-27T23:03:51.241Z,7.40
2017-08-27T23:06:18.852Z,7.70
2017-08-27T23:08:48.367Z,7.20
2017-08-27T23:11:15.909Z,7.30
2017-08-27T23:13:43.430Z,6.97
2017-08-27T23:16:10.925Z,7.13
2017-08-27T23:18:40.413Z,6.60
2017-08-27T23:21:07.922Z,7.10
2017-08-27T23:23:35.434Z,6.60
2017-08-27T23:26:02.926Z,6.37
2017-08-27T23:28:30.412Z,7.90
2017-08-27T23:30:57.903Z,7.23
2017-08-27T23:33:25.387Z,6.90
2017-08-27T23:35:52.891Z,6.97
2017-08-27T23:38:20.370Z,6.83
2017-08-27T23:40:47.882Z,6.13
2017-08-27T23:43:15.374Z,6.30
2017-08-27T23:45:42.894Z,5.93
2017-08-27T23:48:10.382Z,6.87
2017-08-27T23:50:38.858Z,6.53
2017-08-27T23:53:06.349Z,6.50
2017-08-27T23:55:33.855Z,6.90
2017-08-27T23:58:01.338Z,7.03
